Terminal Aerodrome Forecast
Issued by NWS New Orleans/Baton Rouge, LA

Home | Current Version | Previous Version | Text Only | Print | Product List | Glossary On
Versions: 1 2 3 4 5 6 7 8 9 10 11 12 13 14 15 16 17 18 19 20 21 22 23 24 25 26 27 28 29 30
935
FTUS44 KLIX 182340
TAFBTR
TAF
KBTR 182340Z 1900/1924 18006KT P6SM SCT017 BKN250
     FM190600 17011KT P6SM VCSH OVC013
     FM191330 23013KT 5SM SHRA BR OVC015
     FM191500 27016KT 3SM TSRA OVC024CB
     FM191700 28017G25KT P6SM OVC022=

USA.gov is the U.S. government's official web portal to all federal, state and local government web resources and services.